sensor_id;sensor_type;location;lat;lon;timestamp;pressure;altitude;pressure_sealevel;temperature;humidity
49949;BME280;35840;45.982;8.890;2022-09-13T00:00:38;98320.16;;;19.50;64.21
49949;BME280;35840;45.982;8.890;2022-09-13T00:03:05;98323.59;;;19.51;64.28
49949;BME280;35840;45.982;8.890;2022-09-13T00:05:32;98328.44;;;19.46;64.41
49949;BME280;35840;45.982;8.890;2022-09-13T00:08:00;98322.41;;;19.45;64.49
49949;BME280;35840;45.982;8.890;2022-09-13T00:10:26;98321.88;;;19.41;64.72
49949;BME280;35840;45.982;8.890;2022-09-13T00:12:53;98325.25;;;19.34;65.06
49949;BME280;35840;45.982;8.890;2022-09-13T00:15:20;98328.28;;;19.29;65.64
49949;BME280;35840;45.982;8.890;2022-09-13T00:17:47;98326.94;;;19.25;65.20
49949;BME280;35840;45.982;8.890;2022-09-13T00:20:13;98323.22;;;19.27;64.80
49949;BME280;35840;45.982;8.890;2022-09-13T00:22:40;98332.38;;;19.32;64.68
49949;BME280;35840;45.982;8.890;2022-09-13T00:25:07;98324.28;;;19.17;65.21
49949;BME280;35840;45.982;8.890;2022-09-13T00:27:35;98334.66;;;19.26;65.01
49949;BME280;35840;45.982;8.890;2022-09-13T00:30:06;98327.78;;;19.25;64.79
49949;BME280;35840;45.982;8.890;2022-09-13T00:32:34;98333.81;;;19.26;65.17
49949;BME280;35840;45.982;8.890;2022-09-13T00:35:02;98331.81;;;19.20;65.25
49949;BME280;35840;45.982;8.890;2022-09-13T00:37:29;98325.25;;;19.16;65.22
49949;BME280;35840;45.982;8.890;2022-09-13T00:39:56;98325.69;;;19.11;65.07
49949;BME280;35840;45.982;8.890;2022-09-13T00:42:30;98333.81;;;19.26;64.81
49949;BME280;35840;45.982;8.890;2022-09-13T00:52:33;98316.75;;;19.14;65.33
49949;BME280;35840;45.982;8.890;2022-09-13T00:55:07;98307.59;;;19.09;65.13
49949;BME280;35840;45.982;8.890;2022-09-13T00:57:38;98334.31;;;19.12;65.47
49949;BME280;35840;45.982;8.890;2022-09-13T01:00:15;98329.88;;;19.04;65.49
49949;BME280;35840;45.982;8.890;2022-09-13T01:02:49;98335.59;;;19.07;65.29
49949;BME280;35840;45.982;8.890;2022-09-13T01:05:20;98337.81;;;19.02;65.39
49949;BME280;35840;45.982;8.890;2022-09-13T01:07:48;98325.81;;;18.91;65.64
49949;BME280;35840;45.982;8.890;2022-09-13T01:10:15;98337.34;;;18.89;65.98
49949;BME280;35840;45.982;8.890;2022-09-13T01:13:05;98339.31;;;18.77;66.71
49949;BME280;35840;45.982;8.890;2022-09-13T01:15:40;98337.81;;;18.74;66.91
49949;BME280;35840;45.982;8.890;2022-09-13T01:18:08;98324.09;;;18.72;66.61
49949;BME280;35840;45.982;8.890;2022-09-13T01:39:51;98311.91;;;18.73;66.45
49949;BME280;35840;45.982;8.890;2022-09-13T01:45:15;98305.72;;;18.74;66.58
49949;BME280;35840;45.982;8.890;2022-09-13T01:50:45;98316.06;;;18.66;66.86
49949;BME280;35840;45.982;8.890;2022-09-13T01:53:35;98315.22;;;18.65;66.57
49949;BME280;35840;45.982;8.890;2022-09-13T01:56:59;98309.50;;;18.62;66.75
49949;BME280;35840;45.982;8.890;2022-09-13T01:59:26;98309.25;;;18.55;66.94
49949;BME280;35840;45.982;8.890;2022-09-13T02:05:11;98309.94;;;18.57;67.07
49949;BME280;35840;45.982;8.890;2022-09-13T02:07:42;98309.59;;;18.42;67.34
49949;BME280;35840;45.982;8.890;2022-09-13T02:10:24;98296.63;;;18.32;67.39
49949;BME280;35840;45.982;8.890;2022-09-13T02:12:53;98300.28;;;18.39;67.66
49949;BME280;35840;45.982;8.890;2022-09-13T02:15:31;98292.63;;;18.38;67.35
49949;BME280;35840;45.982;8.890;2022-09-13T02:18:07;98297.78;;;18.48;67.42
49949;BME280;35840;45.982;8.890;2022-09-13T02:20:40;98289.97;;;18.48;67.59
49949;BME280;35840;45.982;8.890;2022-09-13T02:23:13;98288.13;;;18.40;67.21
49949;BME280;35840;45.982;8.890;2022-09-13T02:25:42;98281.81;;;18.33;67.65
49949;BME280;35840;45.982;8.890;2022-09-13T02:28:12;98281.56;;;18.36;67.97
49949;BME280;35840;45.982;8.890;2022-09-13T02:30:46;98284.31;;;18.34;68.34
49949;BME280;35840;45.982;8.890;2022-09-13T02:33:24;98284.91;;;18.18;68.74
49949;BME280;35840;45.982;8.890;2022-09-13T02:35:56;98280.94;;;18.14;69.02
49949;BME280;35840;45.982;8.890;2022-09-13T02:38:43;98283.13;;;18.19;68.74
49949;BME280;35840;45.982;8.890;2022-09-13T02:41:20;98285.44;;;18.22;67.91
49949;BME280;35840;45.982;8.890;2022-09-13T02:43:52;98283.81;;;18.21;68.11
49949;BME280;35840;45.982;8.890;2022-09-13T02:46:28;98290.50;;;18.23;67.69
49949;BME280;35840;45.982;8.890;2022-09-13T02:49:14;98287.50;;;18.18;67.78
49949;BME280;35840;45.982;8.890;2022-09-13T02:51:54;98282.44;;;18.17;67.60
49949;BME280;35840;45.982;8.890;2022-09-13T02:54:41;98288.06;;;18.22;67.80
49949;BME280;35840;45.982;8.890;2022-09-13T02:57:25;98288.34;;;18.19;67.59
49949;BME280;35840;45.982;8.890;2022-09-13T02:59:57;98275.88;;;18.13;67.88
49949;BME280;35840;45.982;8.890;2022-09-13T03:02:27;98268.94;;;18.03;68.30
49949;BME280;35840;45.982;8.890;2022-09-13T03:04:58;98278.38;;;18.04;68.70
49949;BME280;35840;45.982;8.890;2022-09-13T03:07:26;98277.97;;;18.09;67.97
49949;BME280;35840;45.982;8.890;2022-09-13T03:10:07;98277.53;;;18.14;68.50
49949;BME280;35840;45.982;8.890;2022-09-13T03:24:04;98257.19;;;17.99;68.94
49949;BME280;35840;45.982;8.890;2022-09-13T03:29:26;98266.06;;;18.06;68.39
49949;BME280;35840;45.982;8.890;2022-09-13T03:35:06;98264.31;;;17.97;68.50
49949;BME280;35840;45.982;8.890;2022-09-13T03:37:57;98270.75;;;17.93;68.24
49949;BME280;35840;45.982;8.890;2022-09-13T03:45:43;98269.13;;;17.72;69.45
49949;BME280;35840;45.982;8.890;2022-09-13T03:48:12;98259.56;;;17.63;69.68
49949;BME280;35840;45.982;8.890;2022-09-13T03:50:40;98269.00;;;17.74;69.49
49949;BME280;35840;45.982;8.890;2022-09-13T03:53:09;98271.75;;;17.72;69.36
49949;BME280;35840;45.982;8.890;2022-09-13T03:55:40;98257.78;;;17.73;69.28
49949;BME280;35840;45.982;8.890;2022-09-13T03:58:11;98258.44;;;17.76;69.05
49949;BME280;35840;45.982;8.890;2022-09-13T04:00:38;98261.63;;;17.69;69.50
49949;BME280;35840;45.982;8.890;2022-09-13T04:03:07;98254.78;;;17.68;68.99
49949;BME280;35840;45.982;8.890;2022-09-13T04:05:34;98256.56;;;17.78;69.56
49949;BME280;35840;45.982;8.890;2022-09-13T04:08:02;98252.47;;;17.65;69.26
49949;BME280;35840;45.982;8.890;2022-09-13T04:10:32;98256.16;;;17.72;69.34
49949;BME280;35840;45.982;8.890;2022-09-13T04:12:59;98249.44;;;17.70;69.54
49949;BME280;35840;45.982;8.890;2022-09-13T04:15:26;98246.31;;;17.66;69.37
49949;BME280;35840;45.982;8.890;2022-09-13T04:17:53;98241.50;;;17.71;68.90
49949;BME280;35840;45.982;8.890;2022-09-13T04:20:20;98249.44;;;17.70;69.28
49949;BME280;35840;45.982;8.890;2022-09-13T04:22:54;98247.66;;;17.70;68.83
49949;BME280;35840;45.982;8.890;2022-09-13T04:25:21;98247.41;;;17.64;69.13
49949;BME280;35840;45.982;8.890;2022-09-13T04:27:56;98247.28;;;17.65;69.92
49949;BME280;35840;45.982;8.890;2022-09-13T04:30:26;98248.91;;;17.66;69.45
49949;BME280;35840;45.982;8.890;2022-09-13T04:32:53;98246.19;;;17.58;70.27
49949;BME280;35840;45.982;8.890;2022-09-13T04:35:23;98250.69;;;17.56;70.41
49949;BME280;35840;45.982;8.890;2022-09-13T04:37:49;98241.16;;;17.47;70.35
49949;BME280;35840;45.982;8.890;2022-09-13T04:40:16;98256.19;;;17.53;70.15
49949;BME280;35840;45.982;8.890;2022-09-13T04:42:43;98254.16;;;17.47;69.83
49949;BME280;35840;45.982;8.890;2022-09-13T04:45:10;98245.78;;;17.43;70.59
49949;BME280;35840;45.982;8.890;2022-09-13T04:47:37;98250.31;;;17.41;70.16
49949;BME280;35840;45.982;8.890;2022-09-13T04:50:04;98266.16;;;17.48;70.31
49949;BME280;35840;45.982;8.890;2022-09-13T04:52:32;98280.53;;;17.52;69.96
49949;BME280;35840;45.982;8.890;2022-09-13T04:54:59;98269.03;;;17.45;70.60
49949;BME280;35840;45.982;8.890;2022-09-13T04:57:28;98270.97;;;17.43;70.21
49949;BME280;35840;45.982;8.890;2022-09-13T04:59:54;98279.06;;;17.40;70.60
49949;BME280;35840;45.982;8.890;2022-09-13T05:02:21;98276.03;;;17.44;70.61
49949;BME280;35840;45.982;8.890;2022-09-13T05:04:48;98267.69;;;17.41;70.44
49949;BME280;35840;45.982;8.890;2022-09-13T05:07:14;98270.69;;;17.46;70.43
49949;BME280;35840;45.982;8.890;2022-09-13T05:09:41;98261.81;;;17.38;70.62
49949;BME280;35840;45.982;8.890;2022-09-13T05:12:07;98266.72;;;17.42;70.19
49949;BME280;35840;45.982;8.890;2022-09-13T05:14:34;98248.69;;;17.30;70.37
49949;BME280;35840;45.982;8.890;2022-09-13T05:17:00;98276.84;;;17.45;71.25
49949;BME280;35840;45.982;8.890;2022-09-13T05:19:27;98278.22;;;17.49;71.25
49949;BME280;35840;45.982;8.890;2022-09-13T05:21:54;98241.97;;;17.28;71.10
49949;BME280;35840;45.982;8.890;2022-09-13T05:24:20;98244.06;;;17.24;71.65
49949;BME280;35840;45.982;8.890;2022-09-13T05:26:47;98265.50;;;17.36;71.91
49949;BME280;35840;45.982;8.890;2022-09-13T05:29:13;98247.88;;;17.20;72.01
49949;BME280;35840;45.982;8.890;2022-09-13T05:31:41;98275.38;;;17.32;72.19
49949;BME280;35840;45.982;8.890;2022-09-13T05:34:11;98269.19;;;17.33;72.16
49949;BME280;35840;45.982;8.890;2022-09-13T05:36:38;98274.09;;;17.36;71.24
49949;BME280;35840;45.982;8.890;2022-09-13T05:39:12;98285.88;;;17.41;71.53
49949;BME280;35840;45.982;8.890;2022-09-13T05:41:58;98280.66;;;17.50;71.53
49949;BME280;35840;45.982;8.890;2022-09-13T05:44:25;98273.72;;;17.41;71.35
49949;BME280;35840;45.982;8.890;2022-09-13T05:46:52;98261.25;;;17.35;71.31
49949;BME280;35840;45.982;8.890;2022-09-13T05:49:18;98278.63;;;17.44;71.83
49949;BME280;35840;45.982;8.890;2022-09-13T05:51:45;98264.81;;;17.44;71.88
49949;BME280;35840;45.982;8.890;2022-09-13T05:54:12;98262.47;;;17.50;72.20
49949;BME280;35840;45.982;8.890;2022-09-13T05:56:39;98248.81;;;17.48;72.61
49949;BME280;35840;45.982;8.890;2022-09-13T05:59:05;98252.75;;;17.62;72.34
49949;BME280;35840;45.982;8.890;2022-09-13T06:01:34;98244.94;;;17.72;72.47
49949;BME280;35840;45.982;8.890;2022-09-13T06:04:01;98238.88;;;17.81;72.16
49949;BME280;35840;45.982;8.890;2022-09-13T06:06:27;98227.94;;;17.78;72.99
49949;BME280;35840;45.982;8.890;2022-09-13T06:08:55;98244.34;;;17.88;73.10
49949;BME280;35840;45.982;8.890;2022-09-13T06:11:24;98247.59;;;17.90;73.91
49949;BME280;35840;45.982;8.890;2022-09-13T06:13:51;98246.53;;;17.93;73.99
49949;BME280;35840;45.982;8.890;2022-09-13T06:16:19;98252.25;;;18.06;74.27
49949;BME280;35840;45.982;8.890;2022-09-13T06:18:45;98247.44;;;18.01;73.96
49949;BME280;35840;45.982;8.890;2022-09-13T06:21:15;98263.06;;;18.01;73.57
49949;BME280;35840;45.982;8.890;2022-09-13T06:23:45;98256.63;;;17.96;74.73
49949;BME280;35840;45.982;8.890;2022-09-13T06:26:14;98255.28;;;17.92;75.23
49949;BME280;35840;45.982;8.890;2022-09-13T06:28:41;98252.53;;;17.93;74.54
49949;BME280;35840;45.982;8.890;2022-09-13T06:31:10;98239.63;;;18.01;74.15
49949;BME280;35840;45.982;8.890;2022-09-13T06:33:39;98231.28;;;18.08;74.70
49949;BME280;35840;45.982;8.890;2022-09-13T06:36:12;98247.25;;;18.13;74.25
49949;BME280;35840;45.982;8.890;2022-09-13T06:38:40;98250.41;;;18.16;74.66
49949;BME280;35840;45.982;8.890;2022-09-13T06:41:12;98247.50;;;18.19;74.15
49949;BME280;35840;45.982;8.890;2022-09-13T06:43:40;98223.00;;;18.22;74.02
49949;BME280;35840;45.982;8.890;2022-09-13T06:46:09;98214.09;;;18.24;74.09
49949;BME280;35840;45.982;8.890;2022-09-13T06:48:39;98198.97;;;18.28;73.60
49949;BME280;35840;45.982;8.890;2022-09-13T06:51:12;98206.22;;;18.34;73.35
49949;BME280;35840;45.982;8.890;2022-09-13T06:53:40;98209.88;;;18.41;73.32
49949;BME280;35840;45.982;8.890;2022-09-13T06:56:09;98217.75;;;18.50;73.37
49949;BME280;35840;45.982;8.890;2022-09-13T06:58:37;98213.38;;;18.50;72.06
49949;BME280;35840;45.982;8.890;2022-09-13T07:03:40;98205.13;;;18.55;71.10
49949;BME280;35840;45.982;8.890;2022-09-13T07:06:09;98199.47;;;18.59;71.17
49949;BME280;35840;45.982;8.890;2022-09-13T07:08:36;98192.63;;;18.58;71.18
49949;BME280;35840;45.982;8.890;2022-09-13T07:11:06;98197.41;;;18.63;70.81
49949;BME280;35840;45.982;8.890;2022-09-13T07:13:33;98212.97;;;18.73;70.98
49949;BME280;35840;45.982;8.890;2022-09-13T07:16:07;98202.31;;;18.66;72.26
49949;BME280;35840;45.982;8.890;2022-09-13T07:18:34;98218.25;;;18.81;72.86
49949;BME280;35840;45.982;8.890;2022-09-13T07:21:03;98193.53;;;18.67;73.12
49949;BME280;35840;45.982;8.890;2022-09-13T07:23:31;98203.72;;;18.79;73.03
49949;BME280;35840;45.982;8.890;2022-09-13T07:25:59;98215.91;;;18.78;71.72
49949;BME280;35840;45.982;8.890;2022-09-13T07:28:40;98215.63;;;18.81;72.24
49949;BME280;35840;45.982;8.890;2022-09-13T07:31:09;98214.50;;;18.84;72.10
49949;BME280;35840;45.982;8.890;2022-09-13T07:33:37;98204.66;;;18.87;71.27
49949;BME280;35840;45.982;8.890;2022-09-13T07:36:05;98195.25;;;18.95;71.50
49949;BME280;35840;45.982;8.890;2022-09-13T07:38:35;98195.41;;;18.93;71.12
49949;BME280;35840;45.982;8.890;2022-09-13T07:41:04;98202.19;;;19.04;70.30
49949;BME280;35840;45.982;8.890;2022-09-13T07:43:32;98207.91;;;19.07;69.33
49949;BME280;35840;45.982;8.890;2022-09-13T07:46:05;98208.59;;;19.09;68.79
49949;BME280;35840;45.982;8.890;2022-09-13T07:48:34;98209.41;;;19.10;69.76
49949;BME280;35840;45.982;8.890;2022-09-13T07:53:37;98215.03;;;19.23;69.13
49949;BME280;35840;45.982;8.890;2022-09-13T07:56:07;98223.53;;;19.25;69.14
49949;BME280;35840;45.982;8.890;2022-09-13T07:58:35;98213.59;;;19.29;68.93
49949;BME280;35840;45.982;8.890;2022-09-13T08:01:08;98225.09;;;19.44;71.23
49949;BME280;35840;45.982;8.890;2022-09-13T08:03:35;98219.59;;;19.48;70.50
49949;BME280;35840;45.982;8.890;2022-09-13T08:06:03;98231.72;;;19.57;70.60
49949;BME280;35840;45.982;8.890;2022-09-13T08:08:31;98229.16;;;19.65;70.46
49949;BME280;35840;45.982;8.890;2022-09-13T08:10:59;98229.16;;;19.65;69.87
49949;BME280;35840;45.982;8.890;2022-09-13T08:13:27;98231.94;;;19.64;70.50
49949;BME280;35840;45.982;8.890;2022-09-13T08:15:55;98238.66;;;19.74;70.66
49949;BME280;35840;45.982;8.890;2022-09-13T08:18:22;98221.38;;;19.73;70.22
49949;BME280;35840;45.982;8.890;2022-09-13T08:20:48;98231.59;;;19.85;68.52
49949;BME280;35840;45.982;8.890;2022-09-13T08:23:15;98228.00;;;19.86;66.43
49949;BME280;35840;45.982;8.890;2022-09-13T08:25:42;98217.06;;;19.82;66.92
49949;BME280;35840;45.982;8.890;2022-09-13T08:28:13;98236.19;;;19.91;67.32
49949;BME280;35840;45.982;8.890;2022-09-13T08:30:41;98217.56;;;19.86;68.05
49949;BME280;35840;45.982;8.890;2022-09-13T08:33:12;98221.53;;;19.98;68.45
49949;BME280;35840;45.982;8.890;2022-09-13T08:35:39;98218.91;;;19.98;66.74
49949;BME280;35840;45.982;8.890;2022-09-13T08:38:06;98234.31;;;20.09;66.55
49949;BME280;35840;45.982;8.890;2022-09-13T08:40:39;98233.81;;;20.14;65.25
49949;BME280;35840;45.982;8.890;2022-09-13T08:45:59;98219.66;;;20.17;65.73
49949;BME280;35840;45.982;8.890;2022-09-13T08:48:32;98237.81;;;20.26;64.77
49949;BME280;35840;45.982;8.890;2022-09-13T08:51:03;98233.41;;;20.35;65.44
49949;BME280;35840;45.982;8.890;2022-09-13T08:53:39;98226.78;;;20.49;65.72
49949;BME280;35840;45.982;8.890;2022-09-13T09:01:48;98227.50;;;20.76;63.47
49949;BME280;35840;45.982;8.890;2022-09-13T09:07:03;98211.66;;;20.77;64.46
49949;BME280;35840;45.982;8.890;2022-09-13T09:09:34;98209.56;;;20.81;64.04
49949;BME280;35840;45.982;8.890;2022-09-13T09:12:20;98213.00;;;20.90;61.44
49949;BME280;35840;45.982;8.890;2022-09-13T09:17:30;98215.28;;;21.01;61.88
49949;BME280;35840;45.982;8.890;2022-09-13T09:20:02;98221.97;;;21.12;61.49
49949;BME280;35840;45.982;8.890;2022-09-13T09:22:34;98227.53;;;21.17;60.79
49949;BME280;35840;45.982;8.890;2022-09-13T09:25:01;98205.94;;;21.15;62.83
49949;BME280;35840;45.982;8.890;2022-09-13T09:27:29;98228.50;;;21.24;61.37
49949;BME280;35840;45.982;8.890;2022-09-13T09:29:56;98230.44;;;21.39;61.63
49949;BME280;35840;45.982;8.890;2022-09-13T09:35:09;98226.06;;;21.31;61.17
49949;BME280;35840;45.982;8.890;2022-09-13T09:37:38;98227.84;;;21.39;62.31
49949;BME280;35840;45.982;8.890;2022-09-13T09:40:11;98218.50;;;21.44;61.69
49949;BME280;35840;45.982;8.890;2022-09-13T09:42:44;98221.47;;;21.58;61.34
49949;BME280;35840;45.982;8.890;2022-09-13T09:47:49;98209.53;;;21.47;59.35
49949;BME280;35840;45.982;8.890;2022-09-13T09:50:20;98216.91;;;21.52;59.09
49949;BME280;35840;45.982;8.890;2022-09-13T09:52:54;98212.97;;;21.56;58.42
49949;BME280;35840;45.982;8.890;2022-09-13T09:55:44;98212.00;;;21.57;59.73
49949;BME280;35840;45.982;8.890;2022-09-13T09:58:13;98211.97;;;21.73;60.33
49949;BME280;35840;45.982;8.890;2022-09-13T10:00:54;98206.03;;;21.79;61.05
49949;BME280;35840;45.982;8.890;2022-09-13T10:03:27;98209.63;;;21.87;59.06
49949;BME280;35840;45.982;8.890;2022-09-13T10:06:24;98190.16;;;21.89;61.18
49949;BME280;35840;45.982;8.890;2022-09-13T10:09:03;98200.72;;;22.04;60.44
49949;BME280;35840;45.982;8.890;2022-09-13T10:11:39;98186.97;;;22.10;61.20
49949;BME280;35840;45.982;8.890;2022-09-13T10:14:26;98187.38;;;22.22;59.88
49949;BME280;35840;45.982;8.890;2022-09-13T10:17:02;98189.78;;;22.32;58.29
49949;BME280;35840;45.982;8.890;2022-09-13T10:19:30;98184.41;;;22.33;59.67
49949;BME280;35840;45.982;8.890;2022-09-13T10:22:03;98182.28;;;22.29;58.73
49949;BME280;35840;45.982;8.890;2022-09-13T10:24:31;98175.63;;;22.18;58.71
49949;BME280;35840;45.982;8.890;2022-09-13T10:26:58;98169.91;;;22.14;59.89
49949;BME280;35840;45.982;8.890;2022-09-13T10:29:26;98163.66;;;22.15;59.53
49949;BME280;35840;45.982;8.890;2022-09-13T10:31:54;98160.34;;;22.30;59.61
49949;BME280;35840;45.982;8.890;2022-09-13T10:34:34;98147.47;;;22.51;61.16
49949;BME280;35840;45.982;8.890;2022-09-13T10:37:04;98160.84;;;22.80;60.97
49949;BME280;35840;45.982;8.890;2022-09-13T10:39:36;98168.06;;;22.78;57.73
49949;BME280;35840;45.982;8.890;2022-09-13T10:42:05;98167.88;;;22.79;56.30
49949;BME280;35840;45.982;8.890;2022-09-13T10:44:38;98162.44;;;22.81;55.77
49949;BME280;35840;45.982;8.890;2022-09-13T10:47:20;98141.91;;;22.69;56.47
49949;BME280;35840;45.982;8.890;2022-09-13T10:49:56;98145.28;;;22.78;55.70
49949;BME280;35840;45.982;8.890;2022-09-13T10:57:54;98136.97;;;23.13;54.61
49949;BME280;35840;45.982;8.890;2022-09-13T11:03:33;98132.03;;;23.18;55.94
49949;BME280;35840;45.982;8.890;2022-09-13T11:08:51;98128.50;;;23.26;54.76
49949;BME280;35840;45.982;8.890;2022-09-13T11:11:23;98121.44;;;23.26;54.38
49949;BME280;35840;45.982;8.890;2022-09-13T11:30:23;98100.09;;;23.59;55.09
49949;BME280;35840;45.982;8.890;2022-09-13T11:44:33;98109.03;;;23.95;56.01
49949;BME280;35840;45.982;8.890;2022-09-13T11:52:32;98092.00;;;23.91;56.78
49949;BME280;35840;45.982;8.890;2022-09-13T11:55:19;98116.84;;;24.10;54.93
49949;BME280;35840;45.982;8.890;2022-09-13T11:57:52;98106.72;;;24.06;56.20
49949;BME280;35840;45.982;8.890;2022-09-13T12:00:23;98101.38;;;24.00;55.55
49949;BME280;35840;45.982;8.890;2022-09-13T12:06:03;98096.97;;;24.00;55.16
49949;BME280;35840;45.982;8.890;2022-09-13T12:08:31;98093.16;;;24.03;55.13
49949;BME280;35840;45.982;8.890;2022-09-13T12:11:09;98093.31;;;24.01;57.52
49949;BME280;35840;45.982;8.890;2022-09-13T12:13:50;98086.25;;;24.02;56.14
49949;BME280;35840;45.982;8.890;2022-09-13T12:16:32;98089.59;;;24.11;57.24
49949;BME280;35840;45.982;8.890;2022-09-13T12:19:10;98082.16;;;24.14;56.55
49949;BME280;35840;45.982;8.890;2022-09-13T12:21:40;98081.41;;;24.20;56.81
49949;BME280;35840;45.982;8.890;2022-09-13T12:24:18;98081.91;;;24.31;57.01
49949;BME280;35840;45.982;8.890;2022-09-13T12:26:57;98085.19;;;24.39;56.79
49949;BME280;35840;45.982;8.890;2022-09-13T12:29:35;98081.91;;;24.31;54.25
49949;BME280;35840;45.982;8.890;2022-09-13T12:32:08;98091.97;;;24.27;55.86
49949;BME280;35840;45.982;8.890;2022-09-13T12:34:55;98086.28;;;24.23;55.82
49949;BME280;35840;45.982;8.890;2022-09-13T12:43:46;98086.53;;;24.29;55.45
49949;BME280;35840;45.982;8.890;2022-09-13T12:54:30;98075.53;;;24.40;55.42
49949;BME280;35840;45.982;8.890;2022-09-13T13:02:49;98061.75;;;24.38;57.45
49949;BME280;35840;45.982;8.890;2022-09-13T13:05:27;98087.69;;;24.63;55.32
49949;BME280;35840;45.982;8.890;2022-09-13T13:08:03;98085.91;;;24.70;52.22
49949;BME280;35840;45.982;8.890;2022-09-13T13:10:33;98076.38;;;24.69;52.36
49949;BME280;35840;45.982;8.890;2022-09-13T13:13:11;98078.59;;;24.65;55.56
49949;BME280;35840;45.982;8.890;2022-09-13T13:23:27;98079.13;;;24.82;51.97
49949;BME280;35840;45.982;8.890;2022-09-13T13:26:10;98071.06;;;24.84;53.89
49949;BME280;35840;45.982;8.890;2022-09-13T13:42:00;98071.19;;;25.04;51.65
49949;BME280;35840;45.982;8.890;2022-09-13T13:54:57;98058.88;;;25.53;51.23
49949;BME280;35840;45.982;8.890;2022-09-13T13:57:27;98052.19;;;25.50;49.39
49949;BME280;35840;45.982;8.890;2022-09-13T14:02:49;98040.22;;;25.41;50.96
49949;BME280;35840;45.982;8.890;2022-09-13T14:16:34;98024.59;;;24.98;54.06
49949;BME280;35840;45.982;8.890;2022-09-13T14:24:41;98005.66;;;24.74;52.77
49949;BME280;35840;45.982;8.890;2022-09-13T14:27:25;98013.88;;;24.64;53.61
49949;BME280;35840;45.982;8.890;2022-09-13T14:29:59;98004.44;;;24.48;54.22
49949;BME280;35840;45.982;8.890;2022-09-13T14:32:29;98022.19;;;24.46;53.58
49949;BME280;35840;45.982;8.890;2022-09-13T14:37:47;98027.38;;;24.33;55.57
49949;BME280;35840;45.982;8.890;2022-09-13T14:40:19;98026.13;;;24.29;55.48
49949;BME280;35840;45.982;8.890;2022-09-13T14:42:51;98025.91;;;24.30;54.79
49949;BME280;35840;45.982;8.890;2022-09-13T14:45:25;98032.63;;;24.33;55.92
49949;BME280;35840;45.982;8.890;2022-09-13T14:48:01;98020.72;;;24.37;54.62
49949;BME280;35840;45.982;8.890;2022-09-13T14:50:36;98020.75;;;24.44;56.25
49949;BME280;35840;45.982;8.890;2022-09-13T14:53:17;98020.38;;;24.47;56.63
49949;BME280;35840;45.982;8.890;2022-09-13T14:55:55;98025.47;;;24.48;57.49
49949;BME280;35840;45.982;8.890;2022-09-13T14:58:28;98015.56;;;24.50;54.60
49949;BME280;35840;45.982;8.890;2022-09-13T15:00:57;98014.97;;;24.55;57.31
49949;BME280;35840;45.982;8.890;2022-09-13T15:03:26;98023.00;;;24.47;57.67
49949;BME280;35840;45.982;8.890;2022-09-13T15:05:56;98010.81;;;24.39;58.34
49949;BME280;35840;45.982;8.890;2022-09-13T15:11:01;98025.16;;;24.36;57.97
49949;BME280;35840;45.982;8.890;2022-09-13T15:13:28;98017.59;;;24.27;57.55
49949;BME280;35840;45.982;8.890;2022-09-13T15:15:54;98034.38;;;24.26;58.06
49949;BME280;35840;45.982;8.890;2022-09-13T15:18:28;98029.28;;;24.24;59.38
49949;BME280;35840;45.982;8.890;2022-09-13T15:21:14;98034.13;;;24.20;58.94
49949;BME280;35840;45.982;8.890;2022-09-13T15:23:48;98026.81;;;24.16;60.32
49949;BME280;35840;45.982;8.890;2022-09-13T15:26:20;98028.78;;;24.14;59.27
49949;BME280;35840;45.982;8.890;2022-09-13T15:31:22;98031.03;;;24.17;57.40
49949;BME280;35840;45.982;8.890;2022-09-13T15:34:12;98028.41;;;24.17;58.24
49949;BME280;35840;45.982;8.890;2022-09-13T15:37:10;98032.88;;;24.16;59.22
49949;BME280;35840;45.982;8.890;2022-09-13T15:39:45;98030.50;;;24.21;58.28
49949;BME280;35840;45.982;8.890;2022-09-13T15:42:15;98028.00;;;24.13;58.57
49949;BME280;35840;45.982;8.890;2022-09-13T15:44:44;98031.03;;;24.17;58.12
49949;BME280;35840;45.982;8.890;2022-09-13T15:47:16;98033.94;;;24.22;59.73
49949;BME280;35840;45.982;8.890;2022-09-13T15:49:48;98024.28;;;24.29;59.52
49949;BME280;35840;45.982;8.890;2022-09-13T15:52:19;98037.03;;;24.32;59.39
49949;BME280;35840;45.982;8.890;2022-09-13T15:54:48;98035.78;;;24.28;59.29
49949;BME280;35840;45.982;8.890;2022-09-13T15:57:19;98043.25;;;24.24;59.60
49949;BME280;35840;45.982;8.890;2022-09-13T15:59:47;98021.25;;;24.26;59.72
49949;BME280;35840;45.982;8.890;2022-09-13T16:04:43;98027.88;;;24.21;60.55
49949;BME280;35840;45.982;8.890;2022-09-13T16:07:12;98025.59;;;24.18;59.10
49949;BME280;35840;45.982;8.890;2022-09-13T16:09:39;98020.34;;;24.18;57.47
49949;BME280;35840;45.982;8.890;2022-09-13T16:12:06;98025.59;;;24.18;57.21
49949;BME280;35840;45.982;8.890;2022-09-13T16:14:32;98017.16;;;24.23;59.47
49949;BME280;35840;45.982;8.890;2022-09-13T16:17:10;98018.88;;;24.09;62.79
49949;BME280;35840;45.982;8.890;2022-09-13T16:19:37;98027.06;;;23.99;64.00
49949;BME280;35840;45.982;8.890;2022-09-13T16:22:04;98023.53;;;23.92;64.53
49949;BME280;35840;45.982;8.890;2022-09-13T16:24:35;98022.81;;;23.83;65.61
49949;BME280;35840;45.982;8.890;2022-09-13T16:27:03;98017.41;;;23.70;66.78
49949;BME280;35840;45.982;8.890;2022-09-13T16:29:30;98005.63;;;23.59;67.58
49949;BME280;35840;45.982;8.890;2022-09-13T16:31:57;98005.34;;;23.54;68.02
49949;BME280;35840;45.982;8.890;2022-09-13T16:34:25;97997.16;;;23.42;68.42
49949;BME280;35840;45.982;8.890;2022-09-13T16:36:52;98011.88;;;23.43;68.81
49949;BME280;35840;45.982;8.890;2022-09-13T16:39:19;98010.19;;;23.35;68.98
49949;BME280;35840;45.982;8.890;2022-09-13T16:41:45;98016.50;;;23.26;69.37
49949;BME280;35840;45.982;8.890;2022-09-13T16:44:12;98022.31;;;23.21;69.98
49949;BME280;35840;45.982;8.890;2022-09-13T16:46:40;98019.78;;;23.13;70.47
49949;BME280;35840;45.982;8.890;2022-09-13T16:49:07;98020.84;;;23.04;70.67
49949;BME280;35840;45.982;8.890;2022-09-13T16:51:33;98031.41;;;22.96;70.34
49949;BME280;35840;45.982;8.890;2022-09-13T16:54:00;98021.47;;;22.91;70.26